Time;durP1;ratioP1;P1;durP2;ratioP2;P2;SDS_P1;SDS_P2;PMS_P1;PMS_P2;Temp;Humidity;BMP_temperature;BMP_pressure;BME280_temperature;BME280_humidity;BME280_pressure;Samples;Min_cycle;Max_cycle;Signal;HPM_P1;HPM_P2
2022/06/25 00:02:46;;;;;;;12.33;5.30;;;17.90;99.90;19.20;96287.00;;;;5065999;28;20203;-70
2022/06/25 00:05:36;;;;;;;8.77;4.63;;;17.90;99.90;19.40;96279.00;;;;5067774;28;20227;-70
2022/06/25 00:08:25;;;;;;;8.60;5.73;;;18.00;99.90;18.90;96284.00;;;;5068936;28;20196;-70
2022/06/25 00:14:18;;;;;;;17.83;5.60;;;17.90;99.90;18.90;96288.00;;;;5065520;28;20582;-70
2022/06/25 00:17:07;;;;;;;10.80;5.23;;;17.90;99.90;19.20;96287.00;;;;5061914;28;20196;-70
2022/06/25 00:19:56;;;;;;;6.00;4.67;;;17.90;99.90;19.30;96291.00;;;;5063947;28;20196;-72
2022/06/25 00:22:47;;;;;;;8.97;4.13;;;17.90;99.90;19.30;96293.00;;;;5067482;28;20687;-70
2022/06/25 00:25:36;;;;;;;8.67;4.23;;;17.90;99.90;19.40;96293.00;;;;5065212;28;20341;-70
2022/06/25 00:28:24;;;;;;;5.37;4.63;;;18.00;99.90;19.40;96310.00;;;;5069107;28;20207;-70
2022/06/25 00:31:13;;;;;;;4.20;3.80;;;18.00;99.90;19.40;96317.00;;;;5066149;28;20200;-71
2022/06/25 00:34:02;;;;;;;3.70;3.37;;;18.00;99.90;19.10;96316.00;;;;5069790;28;21617;-70
2022/06/25 00:36:51;;;;;;;4.50;3.70;;;18.00;99.90;19.20;96320.00;;;;5068711;28;20207;-70
2022/06/25 00:39:43;;;;;;;5.77;4.93;;;17.90;99.90;19.20;96326.00;;;;5057449;28;20212;-72
2022/06/25 00:42:32;;;;;;;9.43;5.80;;;17.90;99.90;19.10;96325.00;;;;5064522;28;20196;-71
2022/06/25 00:45:21;;;;;;;8.77;4.47;;;17.80;99.90;19.00;96330.00;;;;5067946;28;20236;-71
2022/06/25 00:48:10;;;;;;;9.23;5.03;;;17.80;99.90;19.10;96330.00;;;;5068564;28;20211;-71
2022/06/25 00:50:59;;;;;;;9.93;5.27;;;17.80;99.90;19.20;96331.00;;;;5068931;28;20203;-70
2022/06/25 00:53:49;;;;;;;10.73;4.97;;;17.80;99.90;19.20;96338.00;;;;5066497;28;20196;-73
2022/06/25 00:56:48;;;;;;;6.87;4.13;;;17.90;99.90;19.20;96343.00;;;;5068094;28;20200;-71
2022/06/25 00:59:43;;;;;;;5.37;4.30;;;17.90;99.90;18.90;96348.00;;;;5067078;28;20699;-70
2022/06/25 01:02:32;;;;;;;11.30;5.40;;;17.80;99.90;18.70;96344.00;;;;5068555;28;20215;-70
2022/06/25 01:05:21;;;;;;;11.77;6.00;;;17.80;99.90;18.70;96358.00;;;;5062681;28;20227;-70
2022/06/25 01:08:10;;;;;;;6.60;4.97;;;17.70;99.90;18.70;96362.00;;;;5067788;28;20195;-70
2022/06/25 01:10:59;;;;;;;7.33;5.00;;;17.70;99.90;18.90;96360.00;;;;5058580;28;20200;-70
2022/06/25 01:13:49;;;;;;;9.67;4.47;;;17.70;99.90;19.10;96351.00;;;;5067968;28;20208;-70
2022/06/25 01:16:38;;;;;;;4.97;3.80;;;17.70;99.90;19.10;96349.00;;;;5068343;28;20199;-70
2022/06/25 01:19:29;;;;;;;6.40;3.63;;;17.70;99.90;19.00;96359.00;;;;5067430;28;20206;-71
2022/06/25 01:22:19;;;;;;;9.90;4.83;;;17.70;99.90;19.00;96357.00;;;;5068693;28;20196;-69
2022/06/25 01:25:09;;;;;;;6.27;3.70;;;17.70;99.90;19.00;96354.00;;;;5068051;28;20228;-69
2022/06/25 01:27:58;;;;;;;13.27;4.20;;;17.70;99.90;18.90;96360.00;;;;5068608;28;20250;-70
2022/06/25 01:30:47;;;;;;;2.97;2.77;;;17.60;99.90;18.70;96367.00;;;;5069150;28;20204;-69
2022/06/25 01:33:35;;;;;;;7.53;2.97;;;17.60;99.90;18.70;96371.00;;;;5059336;28;20281;-69
2022/06/25 01:36:24;;;;;;;6.40;2.77;;;17.50;99.90;18.70;96366.00;;;;5064574;28;20620;-68
2022/06/25 01:39:14;;;;;;;3.90;3.00;;;17.50;99.90;18.70;96365.00;;;;5066031;28;20192;-71
2022/06/25 01:42:04;;;;;;;4.17;2.40;;;17.40;99.90;18.70;96355.00;;;;5068552;28;20223;-71
2022/06/25 01:44:53;;;;;;;4.10;2.80;;;17.40;99.90;18.50;96353.00;;;;5065754;28;20223;-69
2022/06/25 01:47:42;;;;;;;2.57;1.83;;;17.30;99.90;18.60;96353.00;;;;5068248;28;20577;-70
2022/06/25 01:50:31;;;;;;;5.73;2.23;;;17.30;99.90;18.50;96362.00;;;;5067649;28;20211;-69
2022/06/25 01:53:20;;;;;;;3.00;2.13;;;17.30;99.90;18.50;96363.00;;;;5072332;28;20208;-70
2022/06/25 01:56:10;;;;;;;3.27;2.20;;;17.20;99.90;18.40;96360.00;;;;5071015;28;20215;-69
2022/06/25 01:58:59;;;;;;;4.60;1.90;;;17.20;99.90;18.30;96369.00;;;;5066244;28;20196;-70
2022/06/25 02:01:48;;;;;;;2.60;1.97;;;17.10;99.90;18.30;96379.00;;;;5071696;28;20203;-71
2022/06/25 02:04:37;;;;;;;6.37;1.83;;;17.10;99.90;18.20;96372.00;;;;5071765;28;20219;-69
2022/06/25 02:07:25;;;;;;;;;;;17.00;99.90;18.20;96380.00;;;;5070120;28;20051;-70
2022/06/25 02:10:14;;;;;;;;;;;17.00;99.90;18.20;96385.00;;;;5071404;28;19921;-69
2022/06/25 02:13:04;;;;;;;;;;;16.90;99.90;18.20;96389.00;;;;5067627;28;19927;-69
2022/06/25 02:15:54;;;;;;;;;;;16.90;99.90;18.10;96391.00;;;;5071533;28;19921;-70
2022/06/25 02:18:43;;;;;;;;;;;16.90;99.90;18.10;96402.00;;;;5067423;28;20273;-70
2022/06/25 02:21:31;;;;;;;;;;;15.80;99.90;18.00;96397.00;;;;5071822;28;19920;-70
2022/06/25 02:24:20;;;;;;;;;;;16.80;99.90;17.90;96396.00;;;;5073054;28;19924;-66
2022/06/25 02:27:08;;;;;;;;;;;16.70;99.90;17.80;96395.00;;;;5071803;28;19924;-67
2022/06/25 02:29:58;;;;;;;;;;;16.60;99.90;17.50;96399.00;;;;5072948;28;19946;-67
2022/06/25 02:32:47;;;;;;;;;;;16.60;99.90;17.70;96402.00;;;;5071541;28;19920;-67
2022/06/25 02:35:36;;;;;;;;;;;16.50;99.90;17.70;96411.00;;;;5066723;28;20372;-67
2022/06/25 02:38:24;;;;;;;;;;;16.50;99.90;17.60;96419.00;;;;5071417;28;19920;-67
2022/06/25 02:41:13;;;;;;;;;;;16.40;99.90;17.60;96425.00;;;;5072126;28;20439;-67
2022/06/25 02:44:01;;;;;;;;;;;16.40;99.90;17.50;96430.00;;;;5071479;28;19931;-67
2022/06/25 02:46:51;;;;;;;;;;;16.30;99.90;17.50;96435.00;;;;5070996;28;19924;-68
2022/06/25 02:49:41;;;;;;;;;;;16.30;99.90;17.40;96433.00;;;;5070146;28;20575;-67
2022/06/25 02:52:29;;;;;;;;;;;16.20;99.90;17.40;96427.00;;;;5071550;28;19935;-66
2022/06/25 02:55:18;;;;;;;;;;;16.20;99.90;17.30;96433.00;;;;5069810;28;19920;-67
2022/06/25 03:01:12;;;;;;;;;;;16.10;99.90;17.20;96453.00;;;;5067088;28;19921;-67
2022/06/25 03:04:02;;;;;;;;;;;16.00;99.90;17.00;96447.00;;;;5069591;28;19962;-67
2022/06/25 03:06:51;;;;;;;;;;;15.90;99.90;17.00;96441.00;;;;5071131;28;20335;-67
2022/06/25 03:09:40;;;;;;;;;;;;;16.90;96456.00;;;;5067178;28;19920;-67
2022/06/25 03:12:29;;;;;;;;;;;15.80;99.90;16.80;96463.00;;;;5071052;28;19924;-67
2022/06/25 03:15:18;;;;;;;;;;;15.80;99.90;16.80;96458.00;;;;5070801;28;19936;-67
2022/06/25 03:18:07;;;;;;;;;;;15.70;99.90;16.20;96469.00;;;;5070283;28;19920;-66
2022/06/25 03:20:57;;;;;;;;;;;15.60;99.90;16.20;96466.00;;;;5067327;28;20380;-67
2022/06/25 03:23:46;;;;;;;1.60;0.70;;;15.40;99.90;16.10;96467.00;;;;5069988;28;20210;-66
2022/06/25 03:26:35;;;;;;;0.87;0.70;;;15.30;99.90;16.10;96469.00;;;;5070504;28;20200;-66
2022/06/25 03:29:24;;;;;;;1.23;1.10;;;15.30;99.90;16.00;96474.00;;;;5066067;28;20204;-66
2022/06/25 03:32:13;;;;;;;1.93;0.70;;;15.20;99.90;15.90;96478.00;;;;5060264;28;20196;-67
2022/06/25 03:35:01;;;;;;;0.90;0.60;;;15.10;99.90;16.20;96484.00;;;;5070138;28;20216;-66
2022/06/25 03:37:52;;;;;;;2.33;0.70;;;15.10;99.90;16.20;96485.00;;;;5069308;28;20196;-67
2022/06/25 03:40:40;;;;;;;0.70;0.70;;;15.10;99.90;16.00;96485.00;;;;5069982;28;20203;-66
2022/06/25 03:43:29;;;;;;;3.58;0.90;;;15.10;99.90;15.50;96486.00;;;;5064541;28;20779;-65
2022/06/25 03:46:18;;;;;;;1.83;0.87;;;15.00;99.90;15.40;96491.00;;;;5069735;28;20224;-66
2022/06/25 03:49:08;;;;;;;3.60;0.80;;;14.90;99.90;15.30;96497.00;;;;5067357;28;20833;-68
2022/06/25 03:51:57;;;;;;;2.13;0.70;;;14.80;99.90;15.20;96494.00;;;;5061120;28;20768;-67
2022/06/25 03:54:47;;;;;;;2.40;0.63;;;14.70;99.90;15.10;96495.00;;;;5058706;28;20384;-67
2022/06/25 03:57:36;;;;;;;3.08;0.68;;;14.60;99.90;15.80;96505.00;;;;5066212;28;20384;-67
2022/06/25 04:00:24;;;;;;;0.63;0.40;;;14.70;99.90;15.80;96516.00;;;;5068762;28;20208;-67
2022/06/25 04:03:13;;;;;;;1.57;0.50;;;14.80;99.90;15.80;96515.00;;;;5068916;28;20226;-66
2022/06/25 04:06:02;;;;;;;4.60;0.93;;;14.80;99.90;15.50;96519.00;;;;5069921;28;20590;-65
2022/06/25 04:08:51;;;;;;;0.50;0.50;;;14.80;99.90;15.60;96520.00;;;;5068778;28;20239;-67
2022/06/25 04:11:41;;;;;;;0.83;0.83;;;14.80;99.90;15.90;96517.00;;;;5067996;28;20212;-68
2022/06/25 04:14:30;;;;;;;1.80;0.70;;;14.80;99.90;16.20;96534.00;;;;5056035;28;20229;-67
2022/06/25 04:17:18;;;;;;;1.57;0.47;;;14.90;99.90;16.30;96533.00;;;;5057244;28;20196;-67
2022/06/25 04:20:08;;;;;;;2.47;0.60;;;15.00;99.90;16.30;96533.00;;;;5070186;28;20204;-66
2022/06/25 04:22:57;;;;;;;1.07;0.50;;;15.10;99.90;16.10;96529.00;;;;5069805;28;20204;-67
2022/06/25 04:25:46;;;;;;;0.30;0.27;;;15.10;99.90;16.20;96534.00;;;;5070079;28;20246;-66
2022/06/25 04:31:44;;;;;;;4.87;0.70;;;15.20;99.90;16.50;96536.00;;;;5069035;28;20200;-66
2022/06/25 04:34:32;;;;;;;0.50;0.40;;;15.30;99.90;16.90;96543.00;;;;5067951;28;20227;-66
2022/06/25 04:37:21;;;;;;;1.63;0.47;;;15.40;99.90;16.90;96544.00;;;;5068748;28;20579;-67
2022/06/25 04:40:12;;;;;;;0.37;0.37;;;15.50;99.90;16.80;96545.00;;;;5068939;28;20207;-66
2022/06/25 04:43:00;;;;;;;0.93;0.40;;;15.50;99.90;16.80;96541.00;;;;5066977;28;20200;-66
2022/06/25 04:45:51;;;;;;;0.83;0.47;;;15.60;99.90;17.00;96537.00;;;;5069040;28;20219;-66
2022/06/25 04:48:40;;;;;;;0.80;0.30;;;15.70;99.90;17.00;96537.00;;;;5068553;28;20238;-66
2022/06/25 04:51:29;;;;;;;0.70;0.40;;;15.80;99.90;17.40;96544.00;;;;5069058;28;20729;-66
2022/06/25 04:54:18;;;;;;;1.03;0.50;;;15.90;99.90;17.40;96545.00;;;;5068834;28;20208;-67
2022/06/25 04:57:07;;;;;;;0.50;0.50;;;16.00;99.90;17.50;96537.00;;;;5068633;28;20208;-66
2022/06/25 04:59:56;;;;;;;2.00;0.40;;;16.10;99.90;18.00;96540.00;;;;5069640;28;20686;-67
2022/06/25 05:02:46;;;;;;;0.93;0.50;;;16.20;99.90;18.30;96546.00;;;;5057033;28;20204;-65
2022/06/25 05:05:35;;;;;;;0.30;0.27;;;16.50;99.90;18.70;96542.00;;;;5066116;28;20623;-66
2022/06/25 05:08:24;;;;;;;0.50;0.40;;;16.70;99.90;19.10;96534.00;;;;5061661;28;20216;-66
2022/06/25 05:11:12;;;;;;;2.30;0.53;;;16.90;99.90;19.40;96540.00;;;;5067344;28;20212;-67
2022/06/25 05:14:01;;;;;;;1.33;0.37;;;17.20;99.90;19.70;96539.00;;;;5066256;28;20692;-66
2022/06/25 05:16:50;;;;;;;1.90;0.40;;;17.50;99.90;20.10;96540.00;;;;5065801;28;20219;-66
2022/06/25 05:19:40;;;;;;;0.50;0.50;;;17.80;99.90;20.30;96537.00;;;;5063827;28;20302;-66
2022/06/25 05:22:29;;;;;;;0.43;0.30;;;18.10;99.90;20.60;96538.00;;;;5062633;28;20211;-66
2022/06/25 05:25:18;;;;;;;0.20;0.20;;;18.40;99.90;20.90;96549.00;;;;5067912;28;20231;-66
2022/06/25 05:28:08;;;;;;;0.20;0.20;;;18.70;99.90;20.70;96553.00;;;;5067070;28;20226;-67
2022/06/25 05:30:56;;;;;;;0.40;0.17;;;18.80;99.90;20.70;96566.00;;;;5067917;28;20702;-67
2022/06/25 05:33:45;;;;;;;0.20;0.20;;;18.90;99.90;20.50;96571.00;;;;5057154;28;20200;-67
2022/06/25 05:36:35;;;;;;;0.20;0.17;;;18.90;99.90;20.60;96573.00;;;;5069717;28;20203;-67
2022/06/25 05:39:24;;;;;;;1.33;0.33;;;18.90;99.90;20.40;96576.00;;;;5067638;28;20204;-67
2022/06/25 05:42:13;;;;;;;0.20;0.20;;;18.90;99.90;20.50;96583.00;;;;5067918;28;20203;-67
2022/06/25 05:45:02;;;;;;;0.20;0.10;;;18.90;99.90;20.40;96583.00;;;;5057300;28;20439;-67
2022/06/25 05:47:50;;;;;;;0.30;0.20;;;18.90;99.90;20.30;96581.00;;;;5066986;28;20587;-68
2022/06/25 05:50:39;;;;;;;1.07;0.30;;;18.80;99.90;20.50;96581.00;;;;5067378;28;20196;-67
2022/06/25 05:53:29;;;;;;;0.20;0.10;;;18.80;99.90;20.50;96593.00;;;;5067177;28;20192;-67
2022/06/25 05:56:18;;;;;;;0.77;0.30;;;18.80;99.90;20.50;96595.00;;;;5048435;28;20231;-68
2022/06/25 05:59:07;;;;;;;3.20;2.23;;;18.90;99.90;20.60;96595.00;;;;5066518;28;20200;-68
2022/06/25 06:01:56;;;;;;;1.57;0.20;;;18.90;99.90;20.50;96593.00;;;;5065052;28;20273;-67
2022/06/25 06:04:45;;;;;;;0.30;0.20;;;18.90;99.90;20.50;96601.00;;;;5065059;28;20695;-67
2022/06/25 06:07:34;;;;;;;1.03;0.30;;;18.90;99.90;20.60;96596.00;;;;5065151;28;20587;-67
2022/06/25 06:10:24;;;;;;;0.30;0.20;;;18.90;99.90;20.80;96601.00;;;;5061017;28;20232;-68
2022/06/25 06:13:13;;;;;;;0.20;0.20;;;19.10;99.90;20.90;96596.00;;;;5065509;28;20211;-67
2022/06/25 06:16:02;;;;;;;0.40;0.30;;;19.20;99.90;20.80;96592.00;;;;5067882;28;20651;-68
2022/06/25 06:18:51;;;;;;;0.40;0.20;;;19.20;99.90;21.20;96587.00;;;;5064990;28;20207;-67
2022/06/25 06:21:39;;;;;;;0.57;0.23;;;19.30;99.90;21.40;96592.00;;;;5067193;28;20810;-67
2022/06/25 06:24:28;;;;;;;0.90;0.50;;;19.50;99.90;21.80;96597.00;;;;5064872;28;20219;-68
2022/06/25 06:27:19;;;;;;;0.20;0.10;;;19.70;99.90;22.10;96597.00;;;;5066537;28;20596;-68
2022/06/25 06:30:10;;;;;;;1.07;0.40;;;19.90;99.90;22.20;96598.00;;;;5059318;28;20227;-68
2022/06/25 06:32:59;;;;;;;0.50;0.30;;;20.20;99.90;22.80;96600.00;;;;5061067;28;20334;-67
2022/06/25 06:35:48;;;;;;;0.40;0.30;;;20.50;99.90;22.90;96604.00;;;;5065490;28;20216;-67
2022/06/25 06:38:38;;;;;;;0.43;0.30;;;20.70;99.90;22.80;96615.00;;;;5067861;28;20667;-67
2022/06/25 06:41:26;;;;;;;0.53;0.20;;;20.90;99.90;22.70;96618.00;;;;5070831;28;20582;-68
2022/06/25 06:44:17;;;;;;;0.73;0.30;;;21.00;99.90;22.90;96611.00;;;;5069895;28;20212;-67
2022/06/25 06:47:06;;;;;;;0.30;0.20;;;21.10;99.90;22.80;96626.00;;;;5070570;28;20251;-67
2022/06/25 06:49:55;;;;;;;1.70;0.20;;;21.20;99.90;22.60;96625.00;;;;5066625;28;20230;-68
2022/06/25 06:52:43;;;;;;;0.60;0.20;;;21.10;99.90;22.10;96630.00;;;;5058539;28;20266;-66
2022/06/25 06:55:32;;;;;;;0.70;0.37;;;21.00;99.90;22.50;96631.00;;;;5053103;28;20236;-66
2022/06/25 06:58:21;;;;;;;1.80;0.60;;;20.90;99.90;23.00;96631.00;;;;5055522;28;20208;-67
2022/06/25 07:01:11;;;;;;;0.70;0.40;;;21.00;99.90;23.20;96637.00;;;;5067626;28;20196;-67
2022/06/25 07:04:00;;;;;;;0.40;0.33;;;21.20;99.90;23.60;96639.00;;;;5061270;28;20262;-68
2022/06/25 07:06:49;;;;;;;0.63;0.40;;;21.40;99.90;23.30;96645.00;;;;5065109;28;20662;-67
2022/06/25 07:09:38;;;;;;;1.80;0.20;;;21.50;99.90;23.50;96644.00;;;;5060415;28;20231;-69
2022/06/25 07:12:26;;;;;;;0.53;0.20;;;21.60;99.90;23.50;96648.00;;;;5062592;28;20211;-70
2022/06/25 07:15:15;;;;;;;0.77;0.50;;;21.70;99.90;23.60;96647.00;;;;5060999;28;20224;-68
2022/06/25 07:18:06;;;;;;;0.70;0.30;;;21.70;99.90;23.70;96644.00;;;;5057784;28;20222;-68
2022/06/25 07:20:55;;;;;;;1.23;0.57;;;21.80;99.90;23.50;96633.00;;;;5061014;28;20204;-68
2022/06/25 07:23:44;;;;;;;0.70;0.40;;;21.80;99.90;23.70;96638.00;;;;5062622;28;20699;-68
2022/06/25 07:26:35;;;;;;;1.70;0.83;;;21.90;99.90;23.60;96640.00;;;;5061392;28;20226;-68
2022/06/25 07:29:24;;;;;;;0.43;0.30;;;21.90;99.90;23.50;96642.00;;;;5064570;28;20224;-67
2022/06/25 07:32:13;;;;;;;0.47;0.30;;;21.90;99.90;23.60;96644.00;;;;5056332;28;20200;-69
2022/06/25 07:35:03;;;;;;;0.40;0.30;;;21.90;99.90;23.80;96652.00;;;;5063975;28;20228;-69
2022/06/25 07:37:52;;;;;;;2.23;0.50;;;22.00;99.90;23.90;96645.00;;;;5061807;28;20724;-68
2022/06/25 07:40:43;;;;;;;1.60;0.97;;;22.10;99.90;24.10;96648.00;;;;5060601;28;20545;-69
2022/06/25 07:43:32;;;;;;;0.90;0.60;;;22.20;99.90;24.30;96649.00;;;;5062684;28;20193;-69
2022/06/25 07:46:22;;;;;;;1.03;0.70;;;22.30;99.90;24.40;96643.00;;;;5067024;28;20228;-67
2022/06/25 07:49:10;;;;;;;0.40;0.30;;;22.40;99.90;24.70;96647.00;;;;5062864;28;20200;-66
2022/06/25 07:52:00;;;;;;;1.60;0.33;;;22.60;99.90;24.90;96648.00;;;;5061389;28;20199;-68
2022/06/25 07:54:49;;;;;;;0.50;0.40;;;22.80;99.90;24.80;96646.00;;;;5066741;28;20220;-67
2022/06/25 07:57:38;;;;;;;1.03;0.30;;;22.90;99.90;24.80;96642.00;;;;5064152;28;20570;-69
2022/06/25 08:00:26;;;;;;;2.80;0.30;;;23.00;99.90;24.60;96656.00;;;;5062971;28;20701;-68
2022/06/25 08:03:15;;;;;;;0.40;0.30;;;22.80;99.90;24.70;96657.00;;;;5063633;28;20208;-69
2022/06/25 08:06:04;;;;;;;0.97;0.30;;;23.10;99.90;24.80;96650.00;;;;5060428;28;20708;-69
2022/06/25 08:08:55;;;;;;;0.80;0.40;;;23.10;99.90;24.90;96658.00;;;;5064992;28;20200;-69
2022/06/25 08:11:45;;;;;;;1.37;0.20;;;23.20;99.90;25.00;96657.00;;;;5060150;28;21843;-68
2022/06/25 08:14:33;;;;;;;0.30;0.30;;;23.20;99.90;24.70;96661.00;;;;5058469;28;20235;-68
2022/06/25 08:17:22;;;;;;;0.97;0.30;;;23.10;99.90;24.90;96657.00;;;;5061659;28;20208;-68
2022/06/25 08:20:11;;;;;;;1.70;0.40;;;23.20;99.90;24.60;96653.00;;;;5061188;28;20208;-68
2022/06/25 08:23:00;;;;;;;0.40;0.23;;;23.20;99.90;25.20;96655.00;;;;5063179;28;20272;-68
2022/06/25 08:25:50;;;;;;;0.30;0.20;;;23.30;99.90;25.50;96659.00;;;;5067012;28;20220;-68
2022/06/25 08:28:39;;;;;;;0.20;0.20;;;23.40;99.90;25.80;96658.00;;;;5063891;28;20212;-68
2022/06/25 08:31:29;;;;;;;0.93;0.77;;;23.60;99.90;25.90;96656.00;;;;5057515;28;20228;-68
2022/06/25 08:34:17;;;;;;;0.30;0.20;;;23.80;99.90;25.90;96654.00;;;;5064226;28;20199;-69
2022/06/25 08:37:06;;;;;;;0.50;0.40;;;23.90;99.90;26.40;96666.00;;;;5058728;28;20204;-67
2022/06/25 08:39:55;;;;;;;1.47;0.60;;;24.10;99.90;26.60;96669.00;;;;5059068;28;20689;-68
2022/06/25 08:42:47;;;;;;;0.97;0.57;;;24.30;99.90;26.50;96678.00;;;;5063912;28;20220;-68
2022/06/25 08:45:36;;;;;;;1.30;0.30;;;24.50;99.90;26.20;96669.00;;;;5063845;28;20252;-68
2022/06/25 08:48:31;;;;;;;0.67;0.20;;;24.50;99.90;26.00;96680.00;;;;5057794;28;20211;-68
2022/06/25 08:51:26;;;;;;;0.30;0.20;;;24.50;99.70;26.20;96663.00;;;;5059423;28;20228;-69
2022/06/25 08:54:16;;;;;;;0.53;0.53;;;24.50;99.90;26.50;96673.00;;;;5059625;28;20657;-69
2022/06/25 08:57:05;;;;;;;0.40;0.30;;;24.60;99.90;26.50;96668.00;;;;5060952;28;20684;-68
2022/06/25 08:59:56;;;;;;;0.87;0.40;;;24.70;99.90;26.80;96665.00;;;;5057700;28;21272;-70
2022/06/25 09:02:45;;;;;;;1.17;0.20;;;24.70;99.60;26.90;96680.00;;;;5060074;28;20714;-68
2022/06/25 09:05:37;;;;;;;0.20;0.17;;;24.90;99.90;26.60;96678.00;;;;5060162;28;20283;-68
2022/06/25 09:08:26;;;;;;;0.93;0.50;;;24.90;98.70;27.20;96672.00;;;;5060392;28;20213;-67
2022/06/25 09:11:15;;;;;;;1.07;0.30;;;25.00;99.10;27.00;96676.00;;;;5058203;28;20238;-69
2022/06/25 09:14:23;;;;;;;0.93;0.50;;;25.00;98.70;26.70;96678.00;;;;5062640;28;20199;-69
2022/06/25 09:17:15;;;;;;;0.50;0.20;;;25.10;98.30;26.10;96674.00;;;;5060019;28;20209;-68
2022/06/25 09:20:05;;;;;;;0.27;0.13;;;25.00;95.70;26.20;96676.00;;;;5061188;28;20217;-69
2022/06/25 09:22:57;;;;;;;0.23;0.23;;;24.90;96.10;26.50;96683.00;;;;5059111;28;20219;-67
2022/06/25 09:25:46;;;;;;;0.67;0.40;;;24.80;97.60;26.60;96685.00;;;;5059096;28;20232;-68
2022/06/25 09:28:38;;;;;;;0.20;0.20;;;24.80;98.20;26.50;96686.00;;;;5061458;28;20211;-69
2022/06/25 09:31:35;;;;;;;0.73;0.50;;;24.80;97.10;26.40;96676.00;;;;5059727;28;20223;-68
2022/06/25 09:34:34;;;;;;;0.30;0.20;;;24.80;95.70;25.60;96682.00;;;;5063261;28;20237;-67
2022/06/25 09:37:26;;;;;;;0.50;0.40;;;24.70;94.80;25.60;96653.00;;;;5059923;28;20202;-68
2022/06/25 09:40:17;;;;;;;1.23;0.70;;;24.50;94.10;27.50;96662.00;;;;5059286;28;20216;-68
2022/06/25 09:43:13;;;;;;;1.67;0.80;;;24.90;96.40;27.40;96647.00;;;;5065878;28;20197;-69
2022/06/25 09:46:05;;;;;;;0.70;0.57;;;25.30;93.00;27.80;96640.00;;;;5052689;28;20721;-70
2022/06/25 09:48:54;;;;;;;0.93;0.63;;;25.60;92.60;28.70;96642.00;;;;5064997;28;20578;-70
2022/06/25 09:51:46;;;;;;;1.17;1.00;;;26.10;93.50;28.80;96660.00;;;;5064055;28;20232;-70
2022/06/25 09:54:35;;;;;;;0.50;0.40;;;26.60;92.80;29.70;96652.00;;;;5068789;28;20221;-69
2022/06/25 09:57:24;;;;;;;0.40;0.30;;;26.90;92.00;29.70;96650.00;;;;5060672;28;20575;-70
2022/06/25 10:00:16;;;;;;;0.30;0.20;;;27.40;92.50;27.70;96679.00;;;;5060085;28;20204;-67
2022/06/25 10:03:05;;;;;;;0.60;0.30;;;27.30;87.70;28.50;96658.00;;;;5062122;28;20214;-67
2022/06/25 10:05:56;;;;;;;0.33;0.30;;;27.10;87.10;28.00;96653.00;;;;5064021;28;20224;-71
2022/06/25 10:08:50;;;;;;;0.30;0.30;;;26.80;85.70;27.60;96658.00;;;;5065331;28;20220;-68
2022/06/25 10:11:38;;;;;;;0.70;0.40;;;26.60;84.60;28.10;96650.00;;;;5055586;28;20731;-69
2022/06/25 10:14:27;;;;;;;0.30;0.20;;;26.60;86.40;29.70;96633.00;;;;5071280;28;20245;-69
2022/06/25 10:17:16;;;;;;;0.50;0.40;;;26.90;87.70;30.30;96630.00;;;;5068270;28;20217;-68
2022/06/25 10:20:07;;;;;;;0.50;0.30;;;27.40;87.40;30.30;96618.00;;;;5065423;28;20208;-70
2022/06/25 10:22:56;;;;;;;0.20;0.20;;;27.80;86.30;29.60;96609.00;;;;5070920;28;20214;-68
2022/06/25 10:25:48;;;;;;;2.00;0.40;;;28.10;85.90;29.80;96618.00;;;;5069744;28;20228;-73
2022/06/25 10:28:38;;;;;;;0.60;0.20;;;28.20;84.00;29.70;96649.00;;;;5070288;28;20210;-71
2022/06/25 10:31:27;;;;;;;2.97;0.30;;;28.30;82.20;29.70;96616.00;;;;5067047;28;20580;-69
2022/06/25 10:34:16;;;;;;;0.40;0.20;;;28.30;84.90;29.50;96613.00;;;;5070548;28;20213;-68
2022/06/25 10:37:04;;;;;;;0.87;0.50;;;28.30;82.10;29.70;96613.00;;;;5067432;28;20221;-75
2022/06/25 10:39:55;;;;;;;0.30;0.30;;;28.30;80.70;30.00;96637.00;;;;5065724;28;20189;-72
2022/06/25 10:43:00;;;;;;;0.30;0.30;;;28.30;81.20;29.40;96611.00;;;;5067489;28;20213;-69
2022/06/25 10:45:49;;;;;;;0.93;0.50;;;28.20;79.30;29.70;96648.00;;;;5061512;28;20234;-69
2022/06/25 10:48:38;;;;;;;0.80;0.30;;;28.10;79.10;28.60;96641.00;;;;5070565;28;20207;-66
2022/06/25 10:51:40;;;;;;;0.37;0.20;;;28.00;76.70;29.40;96605.00;;;;5060354;28;20234;-69
2022/06/25 10:54:39;;;;;;;2.80;0.83;;;27.90;78.70;29.30;96651.00;;;;5063027;28;20227;-69
2022/06/25 10:57:40;;;;;;;0.50;0.40;;;27.70;81.10;29.80;96591.00;;;;5064968;28;20197;-73
2022/06/25 11:00:46;;;;;;;1.00;0.33;;;27.70;81.20;30.30;96623.00;;;;5060055;28;20212;-73
2022/06/25 11:03:44;;;;;;;0.73;0.30;;;28.10;81.20;30.30;96627.00;;;;5065561;28;20561;-70
2022/06/25 11:06:36;;;;;;;0.40;0.40;;;28.30;80.70;30.20;96646.00;;;;5069922;28;20697;-69
2022/06/25 11:09:25;;;;;;;0.30;0.30;;;28.20;80.90;30.00;96646.00;;;;5070405;28;20206;-70
2022/06/25 11:12:14;;;;;;;0.27;0.20;;;28.20;79.30;31.20;96576.00;;;;5068906;28;20239;-70
2022/06/25 11:15:06;;;;;;;0.30;0.30;;;28.50;81.10;29.90;96635.00;;;;5069067;28;20215;-65
2022/06/25 11:17:56;;;;;;;0.30;0.20;;;28.60;76.90;29.40;96630.00;;;;5064623;28;20210;-73
2022/06/25 11:20:46;;;;;;;0.43;0.20;;;28.40;77.30;30.20;96616.00;;;;5065112;28;20199;-73
2022/06/25 11:23:35;;;;;;;0.30;0.23;;;28.40;77.40;30.60;96611.00;;;;5066648;28;20210;-72
2022/06/25 11:29:34;;;;;;;0.70;0.32;;;28.70;77.70;30.80;96627.00;;;;5067810;28;20217;-72
2022/06/25 11:32:25;;;;;;;0.38;0.30;;;28.70;77.20;29.70;96630.00;;;;5065234;28;20242;-71
2022/06/25 11:35:16;;;;;;;0.68;0.40;;;28.60;75.40;30.10;96626.00;;;;5070141;28;20223;-74
2022/06/25 11:38:04;;;;;;;1.38;0.50;;;28.40;76.90;29.90;96618.00;;;;5064359;28;20573;-74
2022/06/25 11:40:53;;;;;;;0.30;0.30;;;28.30;75.60;29.80;96615.00;;;;5066748;28;20582;-71
2022/06/25 11:43:42;;;;;;;0.20;0.20;;;28.30;75.30;29.60;96623.00;;;;5065725;28;20206;-73
2022/06/25 11:46:34;;;;;;;1.30;0.52;;;28.10;74.80;29.80;96622.00;;;;5067782;28;20218;-73
2022/06/25 11:49:23;;;;;;;1.23;0.30;;;28.10;74.00;29.50;96637.00;;;;5068457;28;20206;-73
2022/06/25 11:52:17;;;;;;;1.17;0.33;;;28.00;73.60;29.70;96632.00;;;;5068455;28;20231;-72
2022/06/25 11:55:09;;;;;;;0.30;0.20;;;28.00;75.00;29.70;96634.00;;;;5065954;28;20328;-73
2022/06/25 11:57:59;;;;;;;0.30;0.20;;;27.90;74.80;29.70;96628.00;;;;5065826;28;20277;-73
2022/06/25 12:00:48;;;;;;;0.90;0.30;;;27.90;74.40;29.90;96635.00;;;;5066705;28;20207;-73
2022/06/25 12:03:37;;;;;;;0.50;0.20;;;27.90;74.80;29.30;96628.00;;;;5064207;28;20208;-71
2022/06/25 12:06:26;;;;;;;0.30;0.30;;;27.80;73.80;29.10;96627.00;;;;5067244;28;20226;-71
2022/06/25 12:09:19;;;;;;;0.37;0.20;;;27.70;71.20;29.70;96622.00;;;;5067081;28;20219;-71
2022/06/25 12:12:08;;;;;;;0.50;0.50;;;27.70;74.30;29.80;96621.00;;;;5068773;28;20726;-71
2022/06/25 12:15:01;;;;;;;0.50;0.40;;;27.80;73.30;29.30;96619.00;;;;5068581;28;20231;-71
2022/06/25 12:17:50;;;;;;;0.60;0.20;;;27.70;72.40;29.50;96628.00;;;;5065449;28;20217;-72
2022/06/25 12:20:54;;;;;;;1.80;0.40;;;27.70;73.10;30.00;96610.00;;;;5065791;28;20230;-71
2022/06/25 12:23:58;;;;;;;0.20;0.10;;;27.80;73.30;29.50;96627.00;;;;5067656;28;20210;-72
2022/06/25 12:26:54;;;;;;;0.40;0.20;;;27.90;69.70;29.00;96620.00;;;;5067982;28;20197;-73
2022/06/25 12:29:48;;;;;;;0.30;0.23;;;27.80;71.40;29.60;96617.00;;;;5064901;28;20203;-71
2022/06/25 12:32:38;;;;;;;0.67;0.37;;;27.70;73.40;29.50;96627.00;;;;5064107;28;20249;-71
2022/06/25 12:35:30;;;;;;;0.30;0.30;;;27.70;73.70;29.50;96626.00;;;;5065228;28;20229;-71
2022/06/25 12:38:19;;;;;;;1.15;0.50;;;27.70;74.80;29.50;96625.00;;;;5067384;28;20207;-70
2022/06/25 12:41:08;;;;;;;0.50;0.27;;;27.80;75.60;30.10;96614.00;;;;5067084;28;20207;-71
2022/06/25 12:43:58;;;;;;;0.40;0.30;;;28.00;75.90;30.50;96607.00;;;;5065738;28;20226;-71
2022/06/25 12:47:00;;;;;;;0.20;0.20;;;28.10;75.40;30.90;96620.00;;;;5065497;28;20671;-72
2022/06/25 12:49:52;;;;;;;0.40;0.40;;;28.30;76.40;31.30;96602.00;;;;5067934;28;20208;-71
2022/06/25 12:52:41;;;;;;;1.70;0.30;;;28.60;75.60;31.30;96604.00;;;;5067539;28;20231;-71
2022/06/25 12:55:30;;;;;;;0.30;0.20;;;28.90;74.10;29.70;96602.00;;;;5062750;28;20231;-69